createdAt,value
2019-04-22T00:01:08.330Z,13.53
2019-04-22T00:03:47.440Z,13.49
2019-04-22T00:06:40.916Z,13.45
2019-04-22T00:09:14.794Z,13.23
2019-04-22T00:12:01.763Z,13.08
2019-04-22T00:14:11.645Z,13.03
2019-04-22T00:17:00.450Z,12.95
2019-04-22T00:22:07.714Z,12.99
2019-04-22T00:24:39.071Z,12.97
2019-04-22T00:27:14.087Z,12.92
2019-04-22T00:30:05.295Z,12.94
2019-04-22T00:32:24.507Z,12.93
2019-04-22T00:35:02.355Z,12.87
2019-04-22T00:37:56.952Z,12.84
2019-04-22T00:40:19.643Z,12.76
2019-04-22T00:42:47.747Z,12.69
2019-04-22T00:45:39.931Z,12.67
2019-04-22T00:47:54.861Z,12.62
2019-04-22T00:50:30.262Z,12.51
2019-04-22T00:53:08.618Z,12.51
2019-04-22T00:55:51.083Z,12.54
2019-04-22T00:58:24.382Z,12.58
2019-04-22T01:00:58.690Z,12.51
2019-04-22T01:03:34.292Z,12.53
2019-04-22T01:06:03.481Z,12.58
2019-04-22T01:08:46.829Z,12.47
2019-04-22T01:11:16.892Z,12.42
2019-04-22T01:13:46.909Z,12.37
2019-04-22T01:16:22.667Z,12.37
2019-04-22T01:18:53.819Z,12.38
2019-04-22T01:21:42.176Z,12.54
2019-04-22T01:24:15.729Z,12.53
2019-04-22T01:26:43.586Z,12.59
2019-04-22T01:29:14.643Z,12.52
2019-04-22T01:31:40.023Z,12.54
2019-04-22T01:34:27.895Z,12.57
2019-04-22T01:37:02.566Z,12.54
2019-04-22T01:39:44.355Z,12.42
2019-04-22T01:42:21.279Z,12.49
2019-04-22T01:44:50.521Z,12.41
2019-04-22T01:47:32.508Z,12.29
2019-04-22T01:50:06.312Z,12.14
2019-04-22T01:52:36.710Z,12.13
2019-04-22T01:55:18.902Z,12.20
2019-04-22T01:57:45.961Z,12.26
2019-04-22T02:00:11.411Z,12.29
2019-04-22T02:02:59.672Z,12.37
2019-04-22T02:05:28.739Z,12.44
2019-04-22T02:08:06.767Z,12.48
2019-04-22T02:10:39.235Z,12.52
2019-04-22T02:13:06.693Z,12.41
2019-04-22T02:15:47.323Z,12.42
2019-04-22T02:18:23.177Z,12.44
2019-04-22T02:20:48.622Z,12.43
2019-04-22T02:31:40.616Z,12.16
2019-04-22T02:36:30.432Z,11.49
2019-04-22T02:39:15.337Z,11.39
2019-04-22T02:41:49.907Z,11.38
2019-04-22T02:47:14.398Z,11.40
2019-04-22T02:49:50.891Z,11.41
2019-04-22T02:52:14.604Z,11.45
2019-04-22T02:57:26.133Z,11.30
2019-04-22T03:05:59.222Z,11.24
2019-04-22T03:16:14.058Z,11.05
2019-04-22T03:18:57.212Z,11.04
2019-04-22T03:26:30.752Z,11.08
2019-04-22T03:28:51.129Z,11.05
2019-04-22T03:32:40.571Z,10.97
2019-04-22T03:42:21.011Z,10.90
2019-04-22T03:45:00.638Z,10.86
2019-04-22T03:47:29.994Z,10.86
2019-04-22T03:52:26.992Z,10.81
2019-04-22T04:00:17.415Z,10.75
2019-04-22T04:02:46.985Z,10.65
2019-04-22T04:05:33.854Z,10.61
2019-04-22T04:07:55.497Z,10.62
2019-04-22T04:13:05.603Z,10.59
2019-04-22T04:15:32.819Z,10.56
2019-04-22T04:18:09.297Z,10.55
2019-04-22T04:20:45.252Z,10.51
2019-04-22T04:23:31.448Z,10.55
2019-04-22T04:25:52.029Z,10.49
2019-04-22T04:28:53.193Z,10.53
2019-04-22T04:30:59.785Z,10.45
2019-04-22T04:33:40.704Z,10.37
2019-04-22T04:38:45.749Z,10.24
2019-04-22T04:43:59.718Z,10.06
2019-04-22T04:46:46.678Z,10.07
2019-04-22T04:51:33.277Z,10.11
2019-04-22T04:54:15.121Z,10.15
2019-04-22T04:59:28.007Z,10.20
2019-04-22T05:04:41.897Z,10.16
2019-04-22T05:09:44.701Z,10.19
2019-04-22T05:12:12.288Z,10.26
2019-04-22T05:14:41.605Z,10.17
2019-04-22T05:22:38.119Z,10.20
2019-04-22T05:30:34.624Z,10.18
2019-04-22T05:35:26.648Z,10.09
2019-04-22T05:38:08.549Z,10.05
2019-04-22T05:40:28.348Z,10.00
2019-04-22T05:43:11.082Z,9.84
2019-04-22T05:45:43.272Z,9.90
2019-04-22T05:48:23.154Z,9.87
2019-04-22T05:50:57.290Z,9.89
2019-04-22T05:53:25.446Z,9.85
2019-04-22T05:56:10.122Z,9.85
2019-04-22T05:58:38.454Z,9.78
2019-04-22T06:03:52.822Z,9.73
2019-04-22T06:06:17.889Z,9.82
2019-04-22T06:09:00.024Z,9.82
2019-04-22T06:14:00.900Z,9.96
2019-04-22T06:16:38.175Z,9.97
2019-04-22T06:19:14.373Z,10.03
2019-04-22T06:21:43.569Z,10.22
2019-04-22T06:24:22.529Z,10.59
2019-04-22T06:27:01.672Z,11.67
2019-04-22T06:29:30.210Z,12.81
2019-04-22T06:32:23.017Z,14.29
2019-04-22T06:34:35.839Z,15.67
2019-04-22T06:37:13.035Z,16.90
2019-04-22T06:39:44.798Z,17.68
2019-04-22T06:42:26.600Z,18.35
2019-04-22T06:44:54.609Z,19.95
2019-04-22T06:47:39.842Z,20.54
2019-04-22T06:49:58.913Z,20.62
2019-04-22T06:52:28.096Z,20.52
2019-04-22T06:55:09.756Z,21.92
2019-04-22T07:00:23.040Z,23.08
2019-04-22T07:03:17.235Z,23.97
2019-04-22T07:05:23.327Z,24.94
2019-04-22T07:08:12.800Z,26.28
2019-04-22T07:10:35.384Z,27.44
2019-04-22T07:13:11.518Z,27.78
2019-04-22T07:18:18.436Z,28.54
2019-04-22T07:20:51.319Z,28.69
2019-04-22T07:25:56.671Z,30.50
2019-04-22T07:28:23.260Z,31.18
2019-04-22T07:31:04.033Z,30.75
2019-04-22T07:33:40.674Z,31.06
2019-04-22T07:36:30.891Z,32.64
2019-04-22T07:38:35.925Z,32.91
2019-04-22T07:41:24.829Z,33.20
2019-04-22T07:44:07.625Z,32.94
2019-04-22T07:46:27.945Z,32.94
2019-04-22T07:48:57.712Z,33.63
2019-04-22T07:51:32.628Z,32.88
2019-04-22T07:54:06.174Z,32.58
2019-04-22T07:56:48.653Z,32.51
2019-04-22T07:59:15.541Z,33.53
2019-04-22T08:01:53.809Z,33.82
2019-04-22T08:04:35.914Z,32.64
2019-04-22T08:07:06.806Z,33.29
2019-04-22T08:09:47.664Z,32.40
2019-04-22T08:12:02.981Z,32.14
2019-04-22T08:14:45.483Z,31.64
2019-04-22T08:17:50.231Z,34.63
2019-04-22T08:19:57.842Z,36.35
2019-04-22T08:22:25.954Z,37.55
2019-04-22T08:25:04.186Z,39.19
2019-04-22T08:27:41.392Z,39.12
2019-04-22T08:30:17.190Z,39.89
2019-04-22T08:32:49.284Z,40.26
2019-04-22T08:35:20.276Z,40.68
2019-04-22T08:38:24.236Z,41.28
2019-04-22T08:45:47.514Z,42.58
2019-04-22T08:48:19.240Z,41.68
2019-04-22T08:50:48.813Z,41.51
2019-04-22T08:53:29.209Z,40.64
2019-04-22T08:56:04.697Z,40.72
2019-04-22T08:58:28.088Z,40.31
2019-04-22T09:01:04.513Z,39.16
2019-04-22T09:03:37.908Z,39.15
2019-04-22T09:06:28.309Z,39.85
2019-04-22T09:08:55.314Z,39.77
2019-04-22T09:11:35.876Z,39.91
2019-04-22T09:14:01.672Z,39.77
2019-04-22T09:19:15.125Z,36.51
2019-04-22T09:24:29.516Z,35.13
2019-04-22T09:27:08.198Z,34.13
2019-04-22T09:29:39.509Z,34.58
2019-04-22T09:32:19.006Z,33.39
2019-04-22T09:34:47.635Z,32.78
2019-04-22T09:38:12.022Z,33.49
2019-04-22T09:40:21.691Z,32.15
2019-04-22T09:42:56.156Z,33.35
2019-04-22T09:45:27.563Z,32.70
2019-04-22T09:48:09.039Z,35.90
2019-04-22T09:50:43.186Z,37.35
2019-04-22T09:53:20.232Z,39.25
2019-04-22T09:55:51.631Z,37.00
2019-04-22T09:58:26.604Z,37.71
2019-04-22T10:06:34.025Z,37.42
2019-04-22T10:09:34.430Z,37.76
2019-04-22T10:11:50.884Z,38.00
2019-04-22T10:14:25.015Z,40.01
2019-04-22T10:16:59.971Z,40.08
2019-04-22T10:19:38.715Z,34.66
2019-04-22T10:22:10.525Z,35.97
2019-04-22T10:24:44.654Z,36.93
2019-04-22T10:27:21.351Z,35.96
2019-04-22T10:32:44.580Z,34.52
2019-04-22T10:35:13.179Z,34.86
2019-04-22T10:37:42.573Z,34.34
2019-04-22T10:40:21.759Z,34.52
2019-04-22T10:42:53.715Z,35.60
2019-04-22T10:45:26.096Z,35.54
2019-04-22T10:47:58.602Z,34.87
2019-04-22T10:50:44.677Z,34.51
2019-04-22T10:53:19.788Z,35.83
2019-04-22T10:55:54.388Z,36.42
2019-04-22T10:58:27.028Z,37.59
2019-04-22T11:01:00.178Z,37.97
2019-04-22T11:03:35.210Z,35.54
2019-04-22T11:06:11.435Z,35.93
2019-04-22T11:08:50.855Z,34.39
2019-04-22T11:11:31.546Z,34.75
2019-04-22T11:13:52.025Z,34.07
2019-04-22T11:16:25.610Z,35.07
2019-04-22T11:18:59.238Z,35.20
2019-04-22T11:21:32.047Z,36.12
2019-04-22T11:24:05.084Z,37.55
2019-04-22T11:26:38.842Z,36.19
2019-04-22T11:29:12.074Z,35.88
2019-04-22T11:31:44.477Z,37.73
2019-04-22T11:34:17.192Z,35.98
2019-04-22T11:36:50.574Z,37.77
2019-04-22T11:39:23.716Z,38.55
2019-04-22T11:41:56.062Z,37.53
2019-04-22T11:44:30.912Z,35.83
2019-04-22T11:47:11.746Z,36.18
2019-04-22T11:49:44.024Z,35.89
2019-04-22T11:52:17.293Z,34.23
2019-04-22T11:57:28.890Z,29.54
2019-04-22T12:00:01.184Z,29.22
2019-04-22T12:14:50.155Z,24.74
2019-04-22T12:17:22.409Z,24.57
2019-04-22T12:19:56.200Z,25.32
2019-04-22T12:22:31.248Z,24.94
2019-04-22T12:25:04.198Z,25.16
2019-04-22T12:27:37.227Z,25.87
2019-04-22T12:30:11.547Z,26.44
2019-04-22T12:32:43.650Z,25.48
2019-04-22T12:35:17.850Z,26.00
2019-04-22T12:37:57.563Z,25.79
2019-04-22T12:40:38.269Z,25.63
2019-04-22T12:43:04.655Z,25.45
2019-04-22T12:45:36.321Z,25.56
2019-04-22T12:48:10.336Z,24.86
2019-04-22T12:50:45.646Z,25.19
2019-04-22T12:53:20.345Z,25.13
2019-04-22T12:55:54.758Z,25.17
2019-04-22T12:58:27.736Z,25.08
2019-04-22T13:01:03.157Z,25.07
2019-04-22T13:03:36.134Z,24.82
2019-04-22T13:06:09.794Z,24.85
2019-04-22T13:08:43.538Z,24.99
2019-04-22T13:11:19.671Z,24.89
2019-04-22T13:13:51.239Z,25.53
2019-04-22T13:16:24.820Z,25.80
2019-04-22T13:19:17.032Z,25.27
2019-04-22T13:21:44.821Z,25.68
2019-04-22T13:24:19.874Z,25.60
2019-04-22T13:26:55.131Z,25.44
2019-04-22T13:29:28.445Z,25.55
2019-04-22T13:32:00.660Z,25.39
2019-04-22T13:34:39.691Z,25.49
2019-04-22T13:37:07.416Z,25.35
2019-04-22T13:39:40.998Z,25.50
2019-04-22T13:42:17.970Z,25.36
2019-04-22T13:44:49.715Z,24.48
2019-04-22T13:47:42.006Z,24.06
2019-04-22T13:53:10.869Z,23.18
2019-04-22T13:55:36.645Z,22.34
2019-04-22T13:57:56.647Z,21.97
2019-04-22T14:00:18.290Z,21.88
2019-04-22T14:15:38.059Z,20.49
2019-04-22T14:18:13.216Z,20.45
2019-04-22T14:20:46.958Z,20.66
2019-04-22T14:23:20.495Z,20.71
2019-04-22T14:25:54.838Z,20.47
2019-04-22T14:28:29.256Z,20.40
2019-04-22T14:31:02.285Z,20.56
2019-04-22T14:33:34.444Z,20.97
2019-04-22T14:36:07.564Z,20.90
2019-04-22T14:38:39.910Z,20.89
2019-04-22T14:44:23.399Z,20.83
2019-04-22T14:49:41.810Z,20.31
2019-04-22T14:52:19.402Z,20.25
2019-04-22T14:54:41.391Z,19.99
2019-04-22T14:57:05.177Z,20.37
2019-04-22T14:59:37.789Z,19.83
2019-04-22T15:02:11.795Z,19.59
2019-04-22T15:04:45.926Z,19.54
2019-04-22T15:07:37.064Z,19.69
2019-04-22T15:10:11.555Z,19.41
2019-04-22T15:12:46.554Z,19.60
2019-04-22T15:15:31.309Z,19.51
2019-04-22T15:18:26.090Z,19.71
2019-04-22T15:21:18.935Z,19.80
2019-04-22T15:23:52.899Z,20.06
2019-04-22T15:26:26.424Z,20.38
2019-04-22T15:28:59.762Z,20.25
2019-04-22T15:31:35.476Z,20.11
2019-04-22T15:34:08.180Z,20.06
2019-04-22T15:36:40.214Z,20.10
2019-04-22T15:39:13.511Z,20.33
2019-04-22T15:42:11.809Z,20.19
2019-04-22T15:44:42.238Z,20.01
2019-04-22T15:47:15.181Z,19.68
2019-04-22T15:49:47.874Z,19.34
2019-04-22T15:52:31.191Z,19.28
2019-04-22T15:54:58.404Z,19.24
2019-04-22T15:57:38.454Z,19.27
2019-04-22T16:00:39.571Z,19.24
2019-04-22T16:03:12.551Z,19.11
2019-04-22T16:05:46.095Z,18.76
2019-04-22T16:08:19.180Z,18.63
2019-04-22T16:10:55.707Z,18.53
2019-04-22T16:13:31.912Z,18.38
2019-04-22T16:16:04.772Z,18.42
2019-04-22T16:18:38.056Z,18.32
2019-04-22T16:21:20.769Z,18.20
2019-04-22T16:24:09.115Z,18.00
2019-04-22T16:26:48.571Z,18.07
2019-04-22T16:29:21.240Z,17.75
2019-04-22T16:31:53.675Z,17.51
2019-04-22T16:34:27.229Z,17.53
2019-04-22T16:37:00.833Z,17.60
2019-04-22T16:39:46.775Z,17.38
2019-04-22T16:42:31.178Z,17.44
2019-04-22T16:44:57.681Z,17.36
2019-04-22T16:47:35.578Z,17.26
2019-04-22T16:50:16.008Z,17.12
2019-04-22T16:52:52.487Z,17.17
2019-04-22T16:55:26.613Z,17.24
2019-04-22T16:58:01.078Z,16.95
2019-04-22T17:00:34.422Z,17.11
2019-04-22T17:03:42.646Z,17.01
2019-04-22T17:06:25.641Z,17.24
2019-04-22T17:09:23.849Z,17.15
2019-04-22T17:11:58.103Z,17.08
2019-04-22T17:14:44.441Z,17.00
2019-04-22T17:17:14.949Z,17.05
2019-04-22T17:19:49.204Z,16.92
2019-04-22T17:22:21.826Z,16.93
2019-04-22T17:24:58.274Z,16.77
2019-04-22T17:27:37.037Z,16.71
2019-04-22T17:30:10.607Z,16.82
2019-04-22T17:32:50.491Z,16.70
2019-04-22T17:35:22.445Z,16.63
2019-04-22T17:38:08.765Z,16.62
2019-04-22T17:40:56.205Z,16.63
2019-04-22T17:43:44.172Z,16.73
2019-04-22T17:46:19.450Z,16.98
2019-04-22T17:49:16.524Z,16.66
2019-04-22T17:52:17.617Z,17.03
2019-04-22T18:07:54.869Z,17.18
2019-04-22T18:12:40.086Z,17.17
2019-04-22T18:14:15.720Z,16.84
2019-04-22T18:16:41.287Z,16.93
2019-04-22T18:19:15.491Z,16.85
2019-04-22T18:28:30.335Z,16.69
2019-04-22T18:31:03.161Z,16.51
2019-04-22T18:33:37.074Z,16.02
2019-04-22T18:36:12.616Z,16.33
2019-04-22T18:38:51.502Z,16.31
2019-04-22T18:41:17.905Z,16.19
2019-04-22T18:44:06.186Z,16.04
2019-04-22T18:46:37.083Z,15.74
2019-04-22T18:49:08.072Z,15.64
2019-04-22T18:51:51.382Z,15.66
2019-04-22T18:54:55.283Z,15.67
2019-04-22T18:57:41.641Z,15.71
2019-04-22T19:00:06.624Z,15.72
2019-04-22T19:02:49.487Z,15.63
2019-04-22T19:05:27.955Z,15.45
2019-04-22T19:08:18.378Z,15.46
2019-04-22T19:10:57.701Z,15.44
2019-04-22T19:16:15.743Z,15.28
2019-04-22T19:24:34.453Z,15.14
2019-04-22T19:27:25.102Z,14.96
2019-04-22T19:30:42.788Z,14.75
2019-04-22T19:33:19.034Z,14.86
2019-04-22T19:39:13.238Z,14.79
2019-04-22T19:42:06.705Z,14.28
2019-04-22T19:44:34.255Z,14.65
2019-04-22T19:47:21.083Z,14.50
2019-04-22T19:49:52.598Z,14.47
2019-04-22T19:52:24.400Z,14.47
2019-04-22T19:54:55.012Z,14.31
2019-04-22T19:57:31.372Z,14.28
2019-04-22T20:00:05.439Z,14.02
2019-04-22T20:03:20.262Z,13.66
2019-04-22T20:06:01.374Z,13.38
2019-04-22T20:08:36.630Z,13.14
2019-04-22T20:11:13.192Z,12.95
2019-04-22T20:13:41.474Z,12.81
2019-04-22T20:16:06.170Z,12.62
2019-04-22T20:18:58.982Z,12.63
2019-04-22T20:21:29.884Z,12.53
2019-04-22T20:23:53.769Z,12.43
2019-04-22T20:26:44.161Z,12.50
2019-04-22T20:29:21.095Z,12.48
2019-04-22T20:31:51.291Z,12.46
2019-04-22T20:34:23.870Z,12.50
2019-04-22T20:37:08.645Z,12.43
2019-04-22T20:39:38.022Z,12.43
2019-04-22T20:42:36.936Z,12.47
2019-04-22T20:45:04.223Z,12.46
2019-04-22T20:47:32.238Z,12.43
2019-04-22T20:50:14.362Z,12.47
2019-04-22T20:52:53.997Z,12.56
2019-04-22T20:55:16.220Z,12.66
2019-04-22T20:58:13.317Z,12.59
2019-04-22T21:00:46.448Z,12.41
2019-04-22T21:03:26.662Z,12.42
2019-04-22T21:06:07.200Z,12.29
2019-04-22T21:08:47.592Z,12.30
2019-04-22T21:11:33.987Z,12.21
2019-04-22T21:14:15.051Z,12.21
2019-04-22T21:17:00.395Z,12.13
2019-04-22T21:19:55.991Z,12.07
2019-04-22T21:22:30.820Z,12.10
2019-04-22T21:24:55.390Z,11.98
2019-04-22T21:27:37.066Z,12.03
2019-04-22T21:29:58.681Z,11.99
2019-04-22T21:32:38.888Z,11.97
2019-04-22T21:35:22.874Z,11.95
2019-04-22T21:37:51.296Z,11.84
2019-04-22T21:40:24.487Z,11.78
2019-04-22T21:43:10.675Z,11.75
2019-04-22T21:45:23.776Z,11.78
2019-04-22T21:48:20.330Z,11.73
2019-04-22T21:50:48.082Z,11.69
2019-04-22T21:53:27.404Z,11.66
2019-04-22T21:56:04.005Z,11.70
2019-04-22T21:58:31.867Z,11.77
2019-04-22T22:01:33.054Z,11.74
2019-04-22T22:04:00.244Z,11.64
2019-04-22T22:06:23.478Z,11.67
2019-04-22T22:09:08.984Z,11.76
2019-04-22T22:11:38.640Z,11.82
2019-04-22T22:14:13.584Z,11.88
2019-04-22T22:16:42.925Z,11.79
2019-04-22T22:19:22.484Z,11.72
2019-04-22T22:22:05.945Z,11.73
2019-04-22T22:24:35.902Z,11.70
2019-04-22T22:27:04.517Z,11.61
2019-04-22T22:29:49.287Z,11.52
2019-04-22T22:32:16.537Z,11.43
2019-04-22T22:35:01.725Z,11.38
2019-04-22T22:37:17.087Z,11.34
2019-04-22T22:39:51.624Z,11.40
2019-04-22T22:42:23.789Z,11.49
2019-04-22T22:44:54.513Z,11.39
2019-04-22T22:47:42.208Z,11.43
2019-04-22T22:50:18.620Z,11.50
2019-04-22T22:53:00.949Z,11.47
2019-04-22T22:55:22.017Z,11.55
2019-04-22T22:57:58.414Z,11.59
2019-04-22T23:00:33.898Z,11.75
2019-04-22T23:03:38.376Z,11.85
2019-04-22T23:05:50.518Z,11.68
2019-04-22T23:08:20.072Z,11.66
2019-04-22T23:11:01.030Z,11.80
2019-04-22T23:13:31.484Z,11.76
2019-04-22T23:16:00.466Z,11.76
2019-04-22T23:18:19.781Z,11.87
2019-04-22T23:20:54.032Z,11.87
2019-04-22T23:23:43.949Z,11.77
2019-04-22T23:26:40.378Z,11.62
2019-04-22T23:29:27.011Z,11.68
2019-04-22T23:32:08.795Z,11.46
2019-04-22T23:34:49.322Z,11.58
2019-04-22T23:37:29.318Z,11.70
2019-04-22T23:40:20.430Z,11.77
2019-04-22T23:42:46.860Z,11.77
2019-04-22T23:45:15.478Z,11.78
2019-04-22T23:47:43.457Z,11.79
2019-04-22T23:50:29.352Z,11.79
2019-04-22T23:53:03.451Z,11.72
2019-04-22T23:55:39.801Z,11.70
2019-04-22T23:58:13.465Z,11.77
